sensor_id;sensor_type;location;lat;lon;timestamp;P1;durP1;ratioP1;P2;durP2;ratioP2
28607;SDS011;15802;45.654;13.804;2023-01-04T00:02:05;65.43;;;28.90;;
28607;SDS011;15802;45.654;13.804;2023-01-04T00:04:31;67.82;;;28.73;;
28607;SDS011;15802;45.654;13.804;2023-01-04T00:06:57;61.30;;;27.15;;
28607;SDS011;15802;45.654;13.804;2023-01-04T00:09:23;62.55;;;27.52;;
28607;SDS011;15802;45.654;13.804;2023-01-04T00:11:48;50.38;;;23.75;;
28607;SDS011;15802;45.654;13.804;2023-01-04T00:14:14;49.50;;;24.25;;
28607;SDS011;15802;45.654;13.804;2023-01-04T00:16:42;52.33;;;24.88;;
28607;SDS011;15802;45.654;13.804;2023-01-04T00:19:09;49.22;;;23.58;;
28607;SDS011;15802;45.654;13.804;2023-01-04T00:21:36;46.05;;;22.45;;
28607;SDS011;15802;45.654;13.804;2023-01-04T00:24:02;43.90;;;22.52;;
28607;SDS011;15802;45.654;13.804;2023-01-04T00:26:28;40.97;;;21.80;;
28607;SDS011;15802;45.654;13.804;2023-01-04T00:28:57;43.67;;;21.80;;
28607;SDS011;15802;45.654;13.804;2023-01-04T00:31:24;41.95;;;21.27;;
28607;SDS011;15802;45.654;13.804;2023-01-04T00:33:52;38.88;;;20.80;;
28607;SDS011;15802;45.654;13.804;2023-01-04T00:36:19;37.03;;;20.20;;
28607;SDS011;15802;45.654;13.804;2023-01-04T00:38:45;39.13;;;20.58;;
28607;SDS011;15802;45.654;13.804;2023-01-04T00:41:11;35.25;;;20.60;;
28607;SDS011;15802;45.654;13.804;2023-01-04T00:43:38;33.92;;;18.85;;
28607;SDS011;15802;45.654;13.804;2023-01-04T00:46:03;35.05;;;18.95;;
28607;SDS011;15802;45.654;13.804;2023-01-04T00:48:31;33.60;;;18.98;;
28607;SDS011;15802;45.654;13.804;2023-01-04T00:50:57;34.85;;;18.95;;
28607;SDS011;15802;45.654;13.804;2023-01-04T00:53:24;36.65;;;18.35;;
28607;SDS011;15802;45.654;13.804;2023-01-04T00:55:50;31.20;;;16.55;;
28607;SDS011;15802;45.654;13.804;2023-01-04T00:58:16;34.70;;;18.92;;
28607;SDS011;15802;45.654;13.804;2023-01-04T01:00:42;34.90;;;17.50;;
28607;SDS011;15802;45.654;13.804;2023-01-04T01:03:08;27.75;;;16.95;;
28607;SDS011;15802;45.654;13.804;2023-01-04T01:05:33;29.02;;;15.98;;
28607;SDS011;15802;45.654;13.804;2023-01-04T01:08:00;27.15;;;15.55;;
28607;SDS011;15802;45.654;13.804;2023-01-04T01:10:50;32.00;;;16.02;;
28607;SDS011;15802;45.654;13.804;2023-01-04T01:13:17;30.20;;;16.95;;
28607;SDS011;15802;45.654;13.804;2023-01-04T01:15:44;33.92;;;17.50;;
28607;SDS011;15802;45.654;13.804;2023-01-04T01:18:09;28.85;;;17.00;;
28607;SDS011;15802;45.654;13.804;2023-01-04T01:20:39;30.40;;;17.30;;
28607;SDS011;15802;45.654;13.804;2023-01-04T01:23:08;38.20;;;18.80;;
28607;SDS011;15802;45.654;13.804;2023-01-04T01:25:34;36.13;;;18.23;;
28607;SDS011;15802;45.654;13.804;2023-01-04T01:28:00;37.80;;;18.40;;
28607;SDS011;15802;45.654;13.804;2023-01-04T01:30:26;39.80;;;20.33;;
28607;SDS011;15802;45.654;13.804;2023-01-04T01:32:51;34.78;;;19.02;;
28607;SDS011;15802;45.654;13.804;2023-01-04T01:35:17;34.83;;;19.65;;
28607;SDS011;15802;45.654;13.804;2023-01-04T01:37:43;38.22;;;20.23;;
28607;SDS011;15802;45.654;13.804;2023-01-04T01:40:09;39.28;;;20.45;;
28607;SDS011;15802;45.654;13.804;2023-01-04T01:42:36;31.05;;;17.63;;
28607;SDS011;15802;45.654;13.804;2023-01-04T01:45:03;33.30;;;17.38;;
28607;SDS011;15802;45.654;13.804;2023-01-04T01:47:37;28.58;;;16.00;;
28607;SDS011;15802;45.654;13.804;2023-01-04T01:50:09;30.48;;;16.60;;
28607;SDS011;15802;45.654;13.804;2023-01-04T01:52:46;38.15;;;18.73;;
28607;SDS011;15802;45.654;13.804;2023-01-04T01:55:13;39.05;;;20.92;;
28607;SDS011;15802;45.654;13.804;2023-01-04T01:57:41;40.78;;;21.85;;
28607;SDS011;15802;45.654;13.804;2023-01-04T02:00:08;42.15;;;22.73;;
28607;SDS011;15802;45.654;13.804;2023-01-04T02:02:39;44.10;;;21.25;;
28607;SDS011;15802;45.654;13.804;2023-01-04T02:05:08;44.17;;;23.10;;
28607;SDS011;15802;45.654;13.804;2023-01-04T02:07:35;41.85;;;21.02;;
28607;SDS011;15802;45.654;13.804;2023-01-04T02:10:02;40.17;;;21.10;;
28607;SDS011;15802;45.654;13.804;2023-01-04T02:12:28;41.08;;;20.67;;
28607;SDS011;15802;45.654;13.804;2023-01-04T02:14:54;41.08;;;21.15;;
28607;SDS011;15802;45.654;13.804;2023-01-04T02:17:23;38.20;;;19.60;;
28607;SDS011;15802;45.654;13.804;2023-01-04T02:20:17;36.83;;;19.45;;
28607;SDS011;15802;45.654;13.804;2023-01-04T02:23:15;36.75;;;18.77;;
28607;SDS011;15802;45.654;13.804;2023-01-04T02:31:57;36.05;;;20.00;;
28607;SDS011;15802;45.654;13.804;2023-01-04T02:34:29;27.33;;;16.23;;
28607;SDS011;15802;45.654;13.804;2023-01-04T02:37:18;29.63;;;16.15;;
28607;SDS011;15802;45.654;13.804;2023-01-04T02:40:03;29.27;;;16.35;;
28607;SDS011;15802;45.654;13.804;2023-01-04T02:42:54;28.88;;;16.30;;
28607;SDS011;15802;45.654;13.804;2023-01-04T02:45:50;26.30;;;15.25;;
28607;SDS011;15802;45.654;13.804;2023-01-04T02:48:21;34.38;;;16.27;;
28607;SDS011;15802;45.654;13.804;2023-01-04T02:51:22;28.25;;;16.00;;
28607;SDS011;15802;45.654;13.804;2023-01-04T02:53:55;27.00;;;14.95;;
28607;SDS011;15802;45.654;13.804;2023-01-04T02:56:27;25.15;;;15.07;;
28607;SDS011;15802;45.654;13.804;2023-01-04T03:02:21;30.05;;;16.38;;
28607;SDS011;15802;45.654;13.804;2023-01-04T03:05:32;26.73;;;15.63;;
28607;SDS011;15802;45.654;13.804;2023-01-04T03:08:34;29.02;;;15.38;;
28607;SDS011;15802;45.654;13.804;2023-01-04T03:11:11;26.25;;;15.13;;
28607;SDS011;15802;45.654;13.804;2023-01-04T03:14:07;23.08;;;15.00;;
28607;SDS011;15802;45.654;13.804;2023-01-04T03:16:41;24.60;;;14.50;;
28607;SDS011;15802;45.654;13.804;2023-01-04T03:19:09;26.10;;;15.73;;
28607;SDS011;15802;45.654;13.804;2023-01-04T03:21:39;26.17;;;15.48;;
28607;SDS011;15802;45.654;13.804;2023-01-04T03:24:08;25.80;;;14.63;;
28607;SDS011;15802;45.654;13.804;2023-01-04T03:26:56;26.40;;;15.65;;
28607;SDS011;15802;45.654;13.804;2023-01-04T03:29:46;28.02;;;14.55;;
28607;SDS011;15802;45.654;13.804;2023-01-04T03:32:45;27.02;;;15.40;;
28607;SDS011;15802;45.654;13.804;2023-01-04T03:38:37;23.67;;;14.90;;
28607;SDS011;15802;45.654;13.804;2023-01-04T03:41:29;26.58;;;15.40;;
28607;SDS011;15802;45.654;13.804;2023-01-04T03:44:26;27.88;;;16.55;;
28607;SDS011;15802;45.654;13.804;2023-01-04T03:47:23;25.48;;;15.43;;
28607;SDS011;15802;45.654;13.804;2023-01-04T03:50:13;26.92;;;16.33;;
28607;SDS011;15802;45.654;13.804;2023-01-04T03:53:01;25.30;;;15.23;;
28607;SDS011;15802;45.654;13.804;2023-01-04T03:55:30;26.83;;;15.98;;
28607;SDS011;15802;45.654;13.804;2023-01-04T03:57:57;23.77;;;15.50;;
28607;SDS011;15802;45.654;13.804;2023-01-04T04:00:24;27.48;;;16.40;;
28607;SDS011;15802;45.654;13.804;2023-01-04T04:02:50;28.58;;;15.82;;
28607;SDS011;15802;45.654;13.804;2023-01-04T04:05:16;27.48;;;15.57;;
28607;SDS011;15802;45.654;13.804;2023-01-04T04:08:07;28.35;;;15.82;;
28607;SDS011;15802;45.654;13.804;2023-01-04T04:10:50;27.15;;;16.88;;
28607;SDS011;15802;45.654;13.804;2023-01-04T04:13:16;32.30;;;17.17;;
28607;SDS011;15802;45.654;13.804;2023-01-04T04:15:42;31.42;;;16.38;;
28607;SDS011;15802;45.654;13.804;2023-01-04T04:18:08;33.45;;;18.65;;
28607;SDS011;15802;45.654;13.804;2023-01-04T04:20:34;30.10;;;17.95;;
28607;SDS011;15802;45.654;13.804;2023-01-04T04:23:00;31.63;;;17.73;;
28607;SDS011;15802;45.654;13.804;2023-01-04T04:25:26;30.17;;;17.88;;
28607;SDS011;15802;45.654;13.804;2023-01-04T04:27:51;31.05;;;17.15;;
28607;SDS011;15802;45.654;13.804;2023-01-04T04:30:17;30.55;;;17.58;;
28607;SDS011;15802;45.654;13.804;2023-01-04T04:32:43;29.70;;;17.42;;
28607;SDS011;15802;45.654;13.804;2023-01-04T04:35:09;29.88;;;18.10;;
28607;SDS011;15802;45.654;13.804;2023-01-04T04:37:35;28.15;;;16.73;;
28607;SDS011;15802;45.654;13.804;2023-01-04T04:40:01;28.52;;;17.08;;
28607;SDS011;15802;45.654;13.804;2023-01-04T04:42:29;29.98;;;16.35;;
28607;SDS011;15802;45.654;13.804;2023-01-04T04:44:55;27.35;;;16.05;;
28607;SDS011;15802;45.654;13.804;2023-01-04T04:47:20;27.00;;;16.00;;
28607;SDS011;15802;45.654;13.804;2023-01-04T04:49:46;28.63;;;16.00;;
28607;SDS011;15802;45.654;13.804;2023-01-04T04:52:12;28.27;;;16.27;;
28607;SDS011;15802;45.654;13.804;2023-01-04T04:54:38;28.45;;;15.30;;
28607;SDS011;15802;45.654;13.804;2023-01-04T04:57:04;29.98;;;16.25;;
28607;SDS011;15802;45.654;13.804;2023-01-04T04:59:30;28.35;;;14.43;;
28607;SDS011;15802;45.654;13.804;2023-01-04T05:01:56;28.52;;;15.45;;
28607;SDS011;15802;45.654;13.804;2023-01-04T05:04:22;24.30;;;14.18;;
28607;SDS011;15802;45.654;13.804;2023-01-04T05:06:48;20.75;;;11.77;;
28607;SDS011;15802;45.654;13.804;2023-01-04T05:09:16;21.75;;;12.32;;
28607;SDS011;15802;45.654;13.804;2023-01-04T05:11:42;17.55;;;11.18;;
28607;SDS011;15802;45.654;13.804;2023-01-04T05:14:26;20.60;;;11.82;;
28607;SDS011;15802;45.654;13.804;2023-01-04T05:16:52;19.40;;;11.70;;
28607;SDS011;15802;45.654;13.804;2023-01-04T05:19:18;20.88;;;11.32;;
28607;SDS011;15802;45.654;13.804;2023-01-04T05:21:44;21.80;;;13.13;;
28607;SDS011;15802;45.654;13.804;2023-01-04T05:24:10;22.88;;;12.48;;
28607;SDS011;15802;45.654;13.804;2023-01-04T05:26:37;23.52;;;12.05;;
28607;SDS011;15802;45.654;13.804;2023-01-04T05:29:03;16.88;;;8.23;;
28607;SDS011;15802;45.654;13.804;2023-01-04T05:31:29;10.60;;;6.78;;
28607;SDS011;15802;45.654;13.804;2023-01-04T05:33:55;8.05;;;4.88;;
28607;SDS011;15802;45.654;13.804;2023-01-04T05:36:21;8.98;;;4.22;;
28607;SDS011;15802;45.654;13.804;2023-01-04T05:38:46;7.40;;;4.32;;
28607;SDS011;15802;45.654;13.804;2023-01-04T05:41:12;8.00;;;3.88;;
28607;SDS011;15802;45.654;13.804;2023-01-04T05:43:56;8.50;;;3.88;;
28607;SDS011;15802;45.654;13.804;2023-01-04T05:46:22;10.02;;;4.50;;
28607;SDS011;15802;45.654;13.804;2023-01-04T05:48:48;7.50;;;3.88;;
28607;SDS011;15802;45.654;13.804;2023-01-04T05:51:14;6.90;;;4.15;;
28607;SDS011;15802;45.654;13.804;2023-01-04T05:53:39;7.53;;;4.43;;
28607;SDS011;15802;45.654;13.804;2023-01-04T05:56:05;7.43;;;3.60;;
28607;SDS011;15802;45.654;13.804;2023-01-04T05:58:31;6.32;;;3.47;;
28607;SDS011;15802;45.654;13.804;2023-01-04T06:00:57;5.88;;;4.07;;
28607;SDS011;15802;45.654;13.804;2023-01-04T06:03:23;8.95;;;4.57;;
28607;SDS011;15802;45.654;13.804;2023-01-04T06:05:49;6.13;;;4.32;;
28607;SDS011;15802;45.654;13.804;2023-01-04T06:08:15;5.47;;;3.67;;
28607;SDS011;15802;45.654;13.804;2023-01-04T06:10:41;5.97;;;4.00;;
28607;SDS011;15802;45.654;13.804;2023-01-04T06:13:07;8.25;;;4.15;;
28607;SDS011;15802;45.654;13.804;2023-01-04T06:15:33;9.88;;;5.38;;
28607;SDS011;15802;45.654;13.804;2023-01-04T06:17:58;6.13;;;3.90;;
28607;SDS011;15802;45.654;13.804;2023-01-04T06:20:24;6.18;;;4.15;;
28607;SDS011;15802;45.654;13.804;2023-01-04T06:22:50;5.40;;;3.85;;
28607;SDS011;15802;45.654;13.804;2023-01-04T06:25:16;7.70;;;3.75;;
28607;SDS011;15802;45.654;13.804;2023-01-04T06:27:42;7.43;;;3.78;;
28607;SDS011;15802;45.654;13.804;2023-01-04T06:30:08;6.00;;;3.40;;
28607;SDS011;15802;45.654;13.804;2023-01-04T06:32:34;4.78;;;3.30;;
28607;SDS011;15802;45.654;13.804;2023-01-04T06:35:00;5.43;;;3.40;;
28607;SDS011;15802;45.654;13.804;2023-01-04T06:37:26;4.68;;;2.90;;
28607;SDS011;15802;45.654;13.804;2023-01-04T06:39:52;5.70;;;2.70;;
28607;SDS011;15802;45.654;13.804;2023-01-04T06:42:18;3.40;;;2.40;;
28607;SDS011;15802;45.654;13.804;2023-01-04T06:45:02;7.07;;;2.60;;
28607;SDS011;15802;45.654;13.804;2023-01-04T06:47:29;3.40;;;2.53;;
28607;SDS011;15802;45.654;13.804;2023-01-04T06:49:54;4.20;;;2.70;;
28607;SDS011;15802;45.654;13.804;2023-01-04T06:52:20;5.78;;;3.25;;
28607;SDS011;15802;45.654;13.804;2023-01-04T06:54:46;4.43;;;2.95;;
28607;SDS011;15802;45.654;13.804;2023-01-04T06:57:12;5.50;;;3.15;;
28607;SDS011;15802;45.654;13.804;2023-01-04T06:59:37;6.32;;;3.22;;
28607;SDS011;15802;45.654;13.804;2023-01-04T07:02:03;4.63;;;3.00;;
28607;SDS011;15802;45.654;13.804;2023-01-04T07:04:29;4.80;;;3.33;;
28607;SDS011;15802;45.654;13.804;2023-01-04T07:06:55;5.97;;;2.78;;
28607;SDS011;15802;45.654;13.804;2023-01-04T07:09:21;4.63;;;2.78;;
28607;SDS011;15802;45.654;13.804;2023-01-04T07:11:47;3.83;;;2.53;;
28607;SDS011;15802;45.654;13.804;2023-01-04T07:14:13;5.43;;;3.40;;
28607;SDS011;15802;45.654;13.804;2023-01-04T07:16:39;5.88;;;2.85;;
28607;SDS011;15802;45.654;13.804;2023-01-04T07:19:06;6.20;;;2.83;;
28607;SDS011;15802;45.654;13.804;2023-01-04T07:21:32;3.90;;;2.60;;
28607;SDS011;15802;45.654;13.804;2023-01-04T07:23:58;4.18;;;3.00;;
28607;SDS011;15802;45.654;13.804;2023-01-04T07:26:24;4.50;;;2.50;;
28607;SDS011;15802;45.654;13.804;2023-01-04T07:28:50;6.03;;;3.03;;
28607;SDS011;15802;45.654;13.804;2023-01-04T07:31:34;4.38;;;2.97;;
28607;SDS011;15802;45.654;13.804;2023-01-04T07:34:00;4.18;;;2.17;;
28607;SDS011;15802;45.654;13.804;2023-01-04T07:36:26;6.13;;;2.53;;
28607;SDS011;15802;45.654;13.804;2023-01-04T07:38:51;5.53;;;2.22;;
28607;SDS011;15802;45.654;13.804;2023-01-04T07:41:17;3.67;;;2.30;;
28607;SDS011;15802;45.654;13.804;2023-01-04T07:43:44;3.67;;;2.20;;
28607;SDS011;15802;45.654;13.804;2023-01-04T07:46:10;3.78;;;1.98;;
28607;SDS011;15802;45.654;13.804;2023-01-04T07:48:36;3.00;;;2.08;;
28607;SDS011;15802;45.654;13.804;2023-01-04T07:51:01;3.97;;;2.38;;
28607;SDS011;15802;45.654;13.804;2023-01-04T07:53:27;4.10;;;2.80;;
28607;SDS011;15802;45.654;13.804;2023-01-04T07:55:54;5.82;;;3.33;;
28607;SDS011;15802;45.654;13.804;2023-01-04T07:58:21;3.95;;;2.35;;
28607;SDS011;15802;45.654;13.804;2023-01-04T08:00:47;4.53;;;2.50;;
28607;SDS011;15802;45.654;13.804;2023-01-04T08:03:12;4.35;;;2.72;;
28607;SDS011;15802;45.654;13.804;2023-01-04T08:05:38;4.18;;;2.90;;
28607;SDS011;15802;45.654;13.804;2023-01-04T08:08:05;5.18;;;2.97;;
28607;SDS011;15802;45.654;13.804;2023-01-04T08:10:31;8.85;;;3.97;;
28607;SDS011;15802;45.654;13.804;2023-01-04T08:12:58;3.65;;;2.10;;
28607;SDS011;15802;45.654;13.804;2023-01-04T08:15:24;4.18;;;2.50;;
28607;SDS011;15802;45.654;13.804;2023-01-04T08:17:50;2.53;;;1.80;;
28607;SDS011;15802;45.654;13.804;2023-01-04T08:20:17;3.03;;;2.03;;
28607;SDS011;15802;45.654;13.804;2023-01-04T08:22:43;3.30;;;1.98;;
28607;SDS011;15802;45.654;13.804;2023-01-04T08:25:09;3.10;;;2.17;;
28607;SDS011;15802;45.654;13.804;2023-01-04T08:27:34;7.70;;;3.65;;
28607;SDS011;15802;45.654;13.804;2023-01-04T08:30:00;4.95;;;3.40;;
28607;SDS011;15802;45.654;13.804;2023-01-04T08:32:26;4.70;;;3.15;;
28607;SDS011;15802;45.654;13.804;2023-01-04T08:34:52;5.47;;;3.35;;
28607;SDS011;15802;45.654;13.804;2023-01-04T08:37:19;5.90;;;3.88;;
28607;SDS011;15802;45.654;13.804;2023-01-04T08:39:45;7.50;;;4.30;;
28607;SDS011;15802;45.654;13.804;2023-01-04T08:42:11;7.15;;;4.38;;
28607;SDS011;15802;45.654;13.804;2023-01-04T08:44:37;7.25;;;4.72;;
28607;SDS011;15802;45.654;13.804;2023-01-04T08:47:03;7.30;;;4.53;;
28607;SDS011;15802;45.654;13.804;2023-01-04T08:49:29;6.47;;;3.80;;
28607;SDS011;15802;45.654;13.804;2023-01-04T08:51:54;5.10;;;3.75;;
28607;SDS011;15802;45.654;13.804;2023-01-04T08:54:20;5.35;;;3.72;;
28607;SDS011;15802;45.654;13.804;2023-01-04T08:56:46;5.75;;;3.95;;
28607;SDS011;15802;45.654;13.804;2023-01-04T08:59:12;6.20;;;3.78;;
28607;SDS011;15802;45.654;13.804;2023-01-04T09:01:39;4.75;;;2.95;;
28607;SDS011;15802;45.654;13.804;2023-01-04T09:04:05;6.18;;;2.88;;
28607;SDS011;15802;45.654;13.804;2023-01-04T09:06:31;6.32;;;3.63;;
28607;SDS011;15802;45.654;13.804;2023-01-04T09:08:58;6.28;;;4.10;;
28607;SDS011;15802;45.654;13.804;2023-01-04T09:11:24;11.07;;;4.75;;
28607;SDS011;15802;45.654;13.804;2023-01-04T09:13:54;10.55;;;5.18;;
28607;SDS011;15802;45.654;13.804;2023-01-04T09:16:21;6.07;;;4.28;;
28607;SDS011;15802;45.654;13.804;2023-01-04T09:18:47;8.02;;;4.60;;
28607;SDS011;15802;45.654;13.804;2023-01-04T09:21:14;8.10;;;4.68;;
28607;SDS011;15802;45.654;13.804;2023-01-04T09:23:42;8.90;;;4.82;;
28607;SDS011;15802;45.654;13.804;2023-01-04T09:26:18;8.55;;;4.82;;
28607;SDS011;15802;45.654;13.804;2023-01-04T09:28:46;8.32;;;4.97;;
28607;SDS011;15802;45.654;13.804;2023-01-04T09:31:18;9.65;;;5.70;;
28607;SDS011;15802;45.654;13.804;2023-01-04T09:33:45;10.25;;;6.32;;
28607;SDS011;15802;45.654;13.804;2023-01-04T09:36:13;13.63;;;8.43;;
28607;SDS011;15802;45.654;13.804;2023-01-04T09:38:40;14.25;;;8.02;;
28607;SDS011;15802;45.654;13.804;2023-01-04T09:41:17;23.02;;;10.43;;
28607;SDS011;15802;45.654;13.804;2023-01-04T09:43:51;28.20;;;16.00;;
28607;SDS011;15802;45.654;13.804;2023-01-04T09:46:30;37.30;;;17.25;;
28607;SDS011;15802;45.654;13.804;2023-01-04T09:51:58;44.70;;;21.80;;
28607;SDS011;15802;45.654;13.804;2023-01-04T09:54:45;38.72;;;20.52;;
28607;SDS011;15802;45.654;13.804;2023-01-04T09:57:25;42.30;;;21.60;;
28607;SDS011;15802;45.654;13.804;2023-01-04T09:59:56;39.83;;;21.55;;
28607;SDS011;15802;45.654;13.804;2023-01-04T10:02:48;45.45;;;23.42;;
28607;SDS011;15802;45.654;13.804;2023-01-04T10:05:21;50.40;;;24.10;;
28607;SDS011;15802;45.654;13.804;2023-01-04T10:07:51;48.63;;;24.77;;
28607;SDS011;15802;45.654;13.804;2023-01-04T10:10:17;49.97;;;26.98;;
28607;SDS011;15802;45.654;13.804;2023-01-04T10:13:01;48.58;;;25.75;;
28607;SDS011;15802;45.654;13.804;2023-01-04T10:15:58;53.28;;;26.83;;
28607;SDS011;15802;45.654;13.804;2023-01-04T10:18:36;51.75;;;27.88;;
28607;SDS011;15802;45.654;13.804;2023-01-04T10:24:15;54.88;;;28.98;;
28607;SDS011;15802;45.654;13.804;2023-01-04T10:26:58;57.28;;;28.48;;
28607;SDS011;15802;45.654;13.804;2023-01-04T10:32:41;53.95;;;29.33;;
28607;SDS011;15802;45.654;13.804;2023-01-04T10:35:15;56.30;;;29.60;;
28607;SDS011;15802;45.654;13.804;2023-01-04T10:37:48;55.67;;;29.58;;
28607;SDS011;15802;45.654;13.804;2023-01-04T10:40:17;52.05;;;28.95;;
28607;SDS011;15802;45.654;13.804;2023-01-04T10:42:47;54.38;;;30.23;;
28607;SDS011;15802;45.654;13.804;2023-01-04T10:45:35;54.92;;;29.13;;
28607;SDS011;15802;45.654;13.804;2023-01-04T10:48:13;57.00;;;30.52;;
28607;SDS011;15802;45.654;13.804;2023-01-04T10:50:56;52.35;;;28.90;;
28607;SDS011;15802;45.654;13.804;2023-01-04T10:56:28;52.85;;;28.48;;
28607;SDS011;15802;45.654;13.804;2023-01-04T10:59:08;56.05;;;28.73;;
28607;SDS011;15802;45.654;13.804;2023-01-04T11:01:41;51.92;;;28.38;;
28607;SDS011;15802;45.654;13.804;2023-01-04T11:04:15;55.88;;;29.85;;
28607;SDS011;15802;45.654;13.804;2023-01-04T11:07:06;53.60;;;29.08;;
28607;SDS011;15802;45.654;13.804;2023-01-04T11:09:52;54.13;;;28.23;;
28607;SDS011;15802;45.654;13.804;2023-01-04T11:12:22;58.75;;;29.85;;
28607;SDS011;15802;45.654;13.804;2023-01-04T11:14:48;53.20;;;29.42;;
28607;SDS011;15802;45.654;13.804;2023-01-04T11:17:15;57.13;;;29.75;;
28607;SDS011;15802;45.654;13.804;2023-01-04T11:19:41;49.45;;;27.67;;
28607;SDS011;15802;45.654;13.804;2023-01-04T11:22:25;50.00;;;28.10;;
28607;SDS011;15802;45.654;13.804;2023-01-04T11:24:59;55.53;;;29.25;;
28607;SDS011;15802;45.654;13.804;2023-01-04T11:27:28;58.70;;;30.58;;
28607;SDS011;15802;45.654;13.804;2023-01-04T11:32:34;54.60;;;28.55;;
28607;SDS011;15802;45.654;13.804;2023-01-04T11:35:06;53.03;;;28.63;;
28607;SDS011;15802;45.654;13.804;2023-01-04T11:37:34;51.47;;;28.52;;
28607;SDS011;15802;45.654;13.804;2023-01-04T11:42:50;52.83;;;28.15;;
28607;SDS011;15802;45.654;13.804;2023-01-04T11:45:27;53.28;;;29.52;;
28607;SDS011;15802;45.654;13.804;2023-01-04T11:47:54;51.78;;;28.60;;
28607;SDS011;15802;45.654;13.804;2023-01-04T11:50:45;53.97;;;28.17;;
28607;SDS011;15802;45.654;13.804;2023-01-04T11:53:24;52.50;;;27.77;;
28607;SDS011;15802;45.654;13.804;2023-01-04T11:56:11;54.80;;;27.70;;
28607;SDS011;15802;45.654;13.804;2023-01-04T11:58:43;50.83;;;28.48;;
28607;SDS011;15802;45.654;13.804;2023-01-04T12:01:33;51.85;;;28.60;;
28607;SDS011;15802;45.654;13.804;2023-01-04T12:04:10;54.15;;;30.23;;
28607;SDS011;15802;45.654;13.804;2023-01-04T12:09:25;49.13;;;28.15;;
28607;SDS011;15802;45.654;13.804;2023-01-04T12:11:55;51.15;;;28.67;;
28607;SDS011;15802;45.654;13.804;2023-01-04T12:14:26;54.22;;;28.08;;
28607;SDS011;15802;45.654;13.804;2023-01-04T12:17:05;49.08;;;25.67;;
28607;SDS011;15802;45.654;13.804;2023-01-04T12:19:39;40.30;;;23.83;;
28607;SDS011;15802;45.654;13.804;2023-01-04T12:25:01;39.35;;;22.35;;
28607;SDS011;15802;45.654;13.804;2023-01-04T12:27:34;38.20;;;22.75;;
28607;SDS011;15802;45.654;13.804;2023-01-04T12:50:28;34.63;;;21.33;;
28607;SDS011;15802;45.654;13.804;2023-01-04T12:52:58;32.55;;;18.52;;
28607;SDS011;15802;45.654;13.804;2023-01-04T12:58:38;34.10;;;20.63;;
28607;SDS011;15802;45.654;13.804;2023-01-04T13:01:06;34.05;;;18.92;;
28607;SDS011;15802;45.654;13.804;2023-01-04T13:03:34;34.10;;;18.83;;
28607;SDS011;15802;45.654;13.804;2023-01-04T13:06:08;30.15;;;19.30;;
28607;SDS011;15802;45.654;13.804;2023-01-04T13:08:38;37.03;;;20.55;;
28607;SDS011;15802;45.654;13.804;2023-01-04T13:11:15;34.22;;;19.75;;
28607;SDS011;15802;45.654;13.804;2023-01-04T13:14:06;30.17;;;19.42;;
28607;SDS011;15802;45.654;13.804;2023-01-04T13:17:07;31.00;;;19.88;;
28607;SDS011;15802;45.654;13.804;2023-01-04T13:19:37;34.20;;;19.95;;
28607;SDS011;15802;45.654;13.804;2023-01-04T13:22:07;32.95;;;20.42;;
28607;SDS011;15802;45.654;13.804;2023-01-04T13:24:41;32.38;;;19.45;;
28607;SDS011;15802;45.654;13.804;2023-01-04T13:27:25;34.35;;;21.20;;
28607;SDS011;15802;45.654;13.804;2023-01-04T13:29:50;40.83;;;22.65;;
28607;SDS011;15802;45.654;13.804;2023-01-04T13:32:20;37.15;;;21.70;;
28607;SDS011;15802;45.654;13.804;2023-01-04T13:35:00;37.67;;;21.95;;
28607;SDS011;15802;45.654;13.804;2023-01-04T13:37:35;38.33;;;20.85;;
28607;SDS011;15802;45.654;13.804;2023-01-04T13:43:03;36.63;;;21.45;;
28607;SDS011;15802;45.654;13.804;2023-01-04T13:46:14;35.03;;;21.35;;
28607;SDS011;15802;45.654;13.804;2023-01-04T13:48:45;37.00;;;21.42;;
28607;SDS011;15802;45.654;13.804;2023-01-04T13:51:16;37.88;;;22.27;;
28607;SDS011;15802;45.654;13.804;2023-01-04T13:53:54;34.13;;;20.30;;
28607;SDS011;15802;45.654;13.804;2023-01-04T13:56:24;33.60;;;20.83;;
28607;SDS011;15802;45.654;13.804;2023-01-04T13:58:51;38.50;;;21.50;;
28607;SDS011;15802;45.654;13.804;2023-01-04T14:01:19;35.97;;;20.80;;
28607;SDS011;15802;45.654;13.804;2023-01-04T14:03:50;31.30;;;20.10;;
28607;SDS011;15802;45.654;13.804;2023-01-04T14:06:27;32.58;;;19.05;;
28607;SDS011;15802;45.654;13.804;2023-01-04T14:09:05;32.53;;;19.33;;
28607;SDS011;15802;45.654;13.804;2023-01-04T14:11:42;28.27;;;18.35;;
28607;SDS011;15802;45.654;13.804;2023-01-04T14:14:28;29.73;;;18.42;;
28607;SDS011;15802;45.654;13.804;2023-01-04T14:17:12;31.25;;;18.52;;
28607;SDS011;15802;45.654;13.804;2023-01-04T14:19:58;27.02;;;16.95;;
28607;SDS011;15802;45.654;13.804;2023-01-04T14:22:34;27.02;;;17.42;;
28607;SDS011;15802;45.654;13.804;2023-01-04T14:31:12;29.40;;;18.17;;
28607;SDS011;15802;45.654;13.804;2023-01-04T14:33:43;27.30;;;17.30;;
28607;SDS011;15802;45.654;13.804;2023-01-04T14:36:19;30.02;;;18.65;;
28607;SDS011;15802;45.654;13.804;2023-01-04T14:41:38;28.73;;;16.83;;
28607;SDS011;15802;45.654;13.804;2023-01-04T14:44:08;23.58;;;16.08;;
28607;SDS011;15802;45.654;13.804;2023-01-04T14:46:38;30.07;;;16.27;;
28607;SDS011;15802;45.654;13.804;2023-01-04T14:49:05;25.10;;;17.25;;
28607;SDS011;15802;45.654;13.804;2023-01-04T14:51:33;26.20;;;16.98;;
28607;SDS011;15802;45.654;13.804;2023-01-04T14:54:04;33.63;;;18.25;;
28607;SDS011;15802;45.654;13.804;2023-01-04T14:56:30;54.55;;;27.90;;
28607;SDS011;15802;45.654;13.804;2023-01-04T14:58:57;42.10;;;25.38;;
28607;SDS011;15802;45.654;13.804;2023-01-04T15:01:22;29.05;;;18.80;;
28607;SDS011;15802;45.654;13.804;2023-01-04T15:03:48;26.08;;;16.92;;
28607;SDS011;15802;45.654;13.804;2023-01-04T15:06:14;26.50;;;18.08;;
28607;SDS011;15802;45.654;13.804;2023-01-04T15:08:40;26.92;;;16.95;;
28607;SDS011;15802;45.654;13.804;2023-01-04T15:11:06;26.17;;;17.25;;
28607;SDS011;15802;45.654;13.804;2023-01-04T15:13:34;27.42;;;17.08;;
28607;SDS011;15802;45.654;13.804;2023-01-04T15:16:02;37.13;;;16.15;;
28607;SDS011;15802;45.654;13.804;2023-01-04T15:18:28;27.02;;;15.80;;
28607;SDS011;15802;45.654;13.804;2023-01-04T15:20:54;25.88;;;16.95;;
28607;SDS011;15802;45.654;13.804;2023-01-04T15:23:20;25.88;;;16.58;;
28607;SDS011;15802;45.654;13.804;2023-01-04T15:25:46;24.05;;;16.58;;
28607;SDS011;15802;45.654;13.804;2023-01-04T15:28:13;25.85;;;15.88;;
28607;SDS011;15802;45.654;13.804;2023-01-04T15:30:39;24.35;;;15.68;;
28607;SDS011;15802;45.654;13.804;2023-01-04T15:33:06;24.60;;;15.40;;
28607;SDS011;15802;45.654;13.804;2023-01-04T15:35:32;23.17;;;15.63;;
28607;SDS011;15802;45.654;13.804;2023-01-04T15:37:58;22.08;;;15.13;;
28607;SDS011;15802;45.654;13.804;2023-01-04T15:40:24;27.27;;;16.88;;
28607;SDS011;15802;45.654;13.804;2023-01-04T15:42:50;23.45;;;15.88;;
28607;SDS011;15802;45.654;13.804;2023-01-04T15:45:24;21.40;;;14.82;;
28607;SDS011;15802;45.654;13.804;2023-01-04T15:47:56;22.75;;;14.63;;
28607;SDS011;15802;45.654;13.804;2023-01-04T15:50:27;23.90;;;15.93;;